createdAt,value
2023-04-20T00:04:36.767Z,7.48
2023-04-20T00:09:39.532Z,7.41
2023-04-20T00:14:42.358Z,7.19
2023-04-20T00:19:45.027Z,7.33
2023-04-20T00:24:47.611Z,7.39
2023-04-20T00:29:50.211Z,7.16
2023-04-20T00:34:52.816Z,7.20
2023-04-20T00:39:56.036Z,7.12
2023-04-20T00:45:00.659Z,6.97
2023-04-20T00:50:07.026Z,6.79
2023-04-20T00:55:10.062Z,7.04
2023-04-20T01:00:14.341Z,6.78
2023-04-20T01:05:17.301Z,6.91
2023-04-20T01:10:19.854Z,7.03
2023-04-20T01:15:22.406Z,6.83
2023-04-20T01:20:25.398Z,6.63
2023-04-20T01:25:29.668Z,6.57
2023-04-20T01:30:32.343Z,6.59
2023-04-20T01:35:35.076Z,6.37
2023-04-20T01:40:39.233Z,6.06
2023-04-20T01:45:42.246Z,5.76
2023-04-20T01:50:45.023Z,5.98
2023-04-20T01:55:48.884Z,5.99
2023-04-20T02:00:51.522Z,5.59
2023-04-20T02:05:54.172Z,5.58
2023-04-20T02:10:56.756Z,6.00
2023-04-20T02:15:59.314Z,5.71
2023-04-20T02:21:02.432Z,5.37
2023-04-20T02:26:05.060Z,5.82
2023-04-20T02:31:07.682Z,6.21
2023-04-20T02:36:10.653Z,5.74
2023-04-20T02:41:16.070Z,5.94
2023-04-20T02:46:20.702Z,6.16
2023-04-20T02:51:24.161Z,6.05
2023-04-20T02:56:27.393Z,6.13
2023-04-20T03:01:32.964Z,6.48
2023-04-20T03:06:42.953Z,6.28
2023-04-20T03:11:50.786Z,5.69
2023-04-20T03:17:08.769Z,5.93
2023-04-20T03:22:12.274Z,5.47
2023-04-20T03:27:15.062Z,5.16
2023-04-20T03:32:32.569Z,5.27
2023-04-20T03:37:37.734Z,5.45
2023-04-20T03:42:42.538Z,5.49
2023-04-20T03:47:45.225Z,5.18
2023-04-20T03:52:47.974Z,5.28
2023-04-20T03:57:50.910Z,5.41
2023-04-20T04:02:54.271Z,5.41
2023-04-20T04:08:02.680Z,5.71
2023-04-20T04:13:05.893Z,5.37
2023-04-20T04:18:08.629Z,5.24
2023-04-20T04:23:13.354Z,5.48
2023-04-20T04:28:21.180Z,5.53
2023-04-20T04:33:34.418Z,5.25
2023-04-20T04:38:38.108Z,5.01
2023-04-20T04:43:42.070Z,5.41
2023-04-20T04:49:06.082Z,5.44
2023-04-20T04:54:08.947Z,5.71
2023-04-20T04:59:11.869Z,5.43
2023-04-20T05:04:14.673Z,5.80
2023-04-20T05:09:17.654Z,5.56
2023-04-20T05:14:20.521Z,5.69
2023-04-20T05:19:23.265Z,5.48
2023-04-20T05:24:25.927Z,5.95
2023-04-20T05:29:28.545Z,6.45
2023-04-20T05:34:31.362Z,6.75
2023-04-20T05:39:33.939Z,6.85
2023-04-20T05:44:36.744Z,7.18
2023-04-20T05:49:39.697Z,7.45
2023-04-20T05:54:42.602Z,7.76
2023-04-20T05:59:45.759Z,7.83
2023-04-20T06:04:48.625Z,8.23
2023-04-20T06:09:51.306Z,8.26
2023-04-20T06:14:53.865Z,8.91
2023-04-20T06:19:56.452Z,9.31
2023-04-20T06:25:00.566Z,9.35
2023-04-20T06:30:04.283Z,9.66
2023-04-20T06:35:10.030Z,9.64
2023-04-20T06:40:14.361Z,9.83
2023-04-20T06:45:18.693Z,10.44
2023-04-20T06:50:22.218Z,10.85
2023-04-20T06:55:24.754Z,10.85
2023-04-20T07:00:28.542Z,11.10
2023-04-20T07:05:31.371Z,11.53
2023-04-20T07:10:34.009Z,11.74
2023-04-20T07:15:36.591Z,12.00
2023-04-20T07:20:39.516Z,12.37
2023-04-20T07:25:42.400Z,11.63
2023-04-20T07:30:45.307Z,11.58
2023-04-20T07:35:48.194Z,11.37
2023-04-20T07:40:51.014Z,11.93
2023-04-20T07:45:53.766Z,12.50
2023-04-20T07:50:56.413Z,12.09
2023-04-20T07:55:58.996Z,12.02
2023-04-20T08:01:01.586Z,12.09
2023-04-20T08:06:04.499Z,11.91
2023-04-20T08:11:08.345Z,11.67
2023-04-20T08:16:11.370Z,11.51
2023-04-20T08:21:14.703Z,11.26
2023-04-20T08:26:17.636Z,10.97
2023-04-20T08:31:20.232Z,10.67
2023-04-20T08:36:23.020Z,10.65
2023-04-20T08:41:26.512Z,10.35
2023-04-20T08:46:29.611Z,10.16
2023-04-20T08:51:32.868Z,10.17
2023-04-20T08:56:37.925Z,10.24
2023-04-20T09:01:42.607Z,10.24
2023-04-20T09:06:52.607Z,10.30
2023-04-20T09:12:05.219Z,10.40
2023-04-20T09:17:07.783Z,10.25
2023-04-20T09:22:10.634Z,10.22
2023-04-20T09:27:19.915Z,10.07
2023-04-20T09:32:26.573Z,10.23
2023-04-20T09:37:29.125Z,10.38
2023-04-20T09:42:36.565Z,10.37
2023-04-20T09:47:42.263Z,10.31
2023-04-20T09:52:49.358Z,10.45
2023-04-20T09:57:54.080Z,10.36
2023-04-20T10:02:57.596Z,10.17
2023-04-20T10:08:01.773Z,10.02
2023-04-20T10:13:04.331Z,10.16
2023-04-20T10:18:24.730Z,10.17
2023-04-20T10:23:27.756Z,10.43
2023-04-20T10:28:45.201Z,10.30
2023-04-20T10:33:57.376Z,10.14
2023-04-20T10:39:02.957Z,10.25
2023-04-20T10:44:09.365Z,10.32
2023-04-20T10:49:12.329Z,10.32
2023-04-20T10:54:17.006Z,9.99
2023-04-20T10:59:23.547Z,10.19
2023-04-20T11:04:33.912Z,10.36
2023-04-20T11:09:38.541Z,10.52
2023-04-20T11:15:03.204Z,10.50
2023-04-20T11:20:18.705Z,10.29
2023-04-20T11:25:21.413Z,10.01
2023-04-20T11:30:24.010Z,9.95
2023-04-20T11:35:26.835Z,10.14
2023-04-20T11:40:29.480Z,9.92
2023-04-20T11:45:36.705Z,9.78
2023-04-20T11:50:41.807Z,9.87
2023-04-20T11:55:45.124Z,9.94
2023-04-20T12:00:47.738Z,10.07
2023-04-20T12:05:50.333Z,10.11
2023-04-20T12:10:53.148Z,10.22
2023-04-20T12:15:55.817Z,9.97
2023-04-20T12:20:58.625Z,9.59
2023-04-20T12:26:01.431Z,9.60
2023-04-20T12:31:04.261Z,9.42
2023-04-20T12:36:07.154Z,9.05
2023-04-20T12:41:15.283Z,8.99
2023-04-20T12:46:18.465Z,9.48
2023-04-20T12:51:21.107Z,9.89
2023-04-20T12:56:23.664Z,10.06
2023-04-20T13:01:27.162Z,10.53
2023-04-20T13:06:29.931Z,10.65
2023-04-20T13:11:32.585Z,10.28
2023-04-20T13:16:35.189Z,10.20
2023-04-20T13:21:37.771Z,10.01
2023-04-20T13:26:40.439Z,10.22
2023-04-20T13:31:43.472Z,10.30
2023-04-20T13:36:46.572Z,10.29
2023-04-20T13:41:52.426Z,10.11
2023-04-20T13:46:55.060Z,10.14
2023-04-20T13:51:57.751Z,10.19
2023-04-20T13:57:01.707Z,10.23
2023-04-20T14:02:04.623Z,10.19
2023-04-20T14:07:07.331Z,10.36
2023-04-20T14:12:10.556Z,10.07
2023-04-20T14:17:13.547Z,10.08
2023-04-20T14:22:16.591Z,9.86
2023-04-20T14:27:19.166Z,9.97
2023-04-20T14:32:21.850Z,9.85
2023-04-20T14:37:26.369Z,10.00
2023-04-20T14:42:29.137Z,9.98
2023-04-20T14:47:31.847Z,9.96
2023-04-20T14:52:34.786Z,9.53
2023-04-20T14:57:37.548Z,9.66
2023-04-20T15:02:40.804Z,9.60
2023-04-20T15:07:45.988Z,9.63
2023-04-20T15:12:49.252Z,8.91
2023-04-20T15:17:52.201Z,8.95
2023-04-20T15:22:55.006Z,8.79
2023-04-20T15:27:57.654Z,9.15
2023-04-20T15:33:04.376Z,9.41
2023-04-20T15:38:08.293Z,9.24
2023-04-20T15:43:11.693Z,9.09
2023-04-20T15:48:14.921Z,9.01
2023-04-20T15:53:17.877Z,9.35
2023-04-20T15:58:20.537Z,9.52
2023-04-20T16:03:23.251Z,9.57
2023-04-20T16:08:26.075Z,9.54
2023-04-20T16:13:28.777Z,9.52
2023-04-20T16:18:32.387Z,9.59
2023-04-20T16:23:35.249Z,9.52
2023-04-20T16:28:52.653Z,8.69
2023-04-20T16:33:56.183Z,8.38
2023-04-20T16:38:58.904Z,8.67
2023-04-20T16:44:01.740Z,8.67
2023-04-20T16:49:04.340Z,8.29
2023-04-20T16:54:07.051Z,8.24
2023-04-20T16:59:09.621Z,8.45
2023-04-20T17:04:12.640Z,8.34
2023-04-20T17:09:15.554Z,8.62
2023-04-20T17:14:18.421Z,8.54
2023-04-20T17:19:21.820Z,8.81
2023-04-20T17:24:24.428Z,8.94
2023-04-20T17:29:27.107Z,8.70
2023-04-20T17:34:29.720Z,8.50
2023-04-20T17:39:32.672Z,8.38
2023-04-20T17:44:35.289Z,8.82
2023-04-20T17:49:37.859Z,8.94
2023-04-20T17:54:40.418Z,9.09
2023-04-20T17:59:43.231Z,9.15
2023-04-20T18:04:46.285Z,9.21
2023-04-20T18:09:49.024Z,9.33
2023-04-20T18:14:51.575Z,9.41
2023-04-20T18:19:54.148Z,9.94
2023-04-20T18:24:56.810Z,9.03
2023-04-20T18:30:02.191Z,9.36
2023-04-20T18:35:06.386Z,9.83
2023-04-20T18:40:09.494Z,9.89
2023-04-20T18:45:13.422Z,9.89
2023-04-20T18:50:16.527Z,9.15
2023-04-20T18:55:19.301Z,9.05
2023-04-20T19:00:22.317Z,9.34
2023-04-20T19:05:25.021Z,8.85
2023-04-20T19:10:27.583Z,8.62
2023-04-20T19:15:30.266Z,8.94
2023-04-20T19:20:32.858Z,9.07
2023-04-20T19:25:37.217Z,9.31
2023-04-20T19:30:39.951Z,8.73
2023-04-20T19:35:43.874Z,8.48
2023-04-20T19:40:47.537Z,8.66
2023-04-20T19:45:50.305Z,8.78
2023-04-20T19:50:53.397Z,8.71
2023-04-20T19:55:56.124Z,8.70
2023-04-20T20:00:59.725Z,8.86
2023-04-20T20:06:02.452Z,8.97
2023-04-20T20:11:05.203Z,8.95
2023-04-20T20:16:07.857Z,8.79
2023-04-20T20:21:10.815Z,9.02
2023-04-20T20:26:13.919Z,9.24
2023-04-20T20:31:16.648Z,9.28
2023-04-20T20:36:19.476Z,9.07
2023-04-20T20:41:22.200Z,9.10
2023-04-20T20:46:24.770Z,9.16
2023-04-20T20:51:27.398Z,8.86
2023-04-20T20:56:30.248Z,9.06
2023-04-20T21:01:33.002Z,9.14
2023-04-20T21:06:35.713Z,9.34
2023-04-20T21:11:38.613Z,9.38
2023-04-20T21:16:41.344Z,9.40
2023-04-20T21:21:44.246Z,9.38
2023-04-20T21:26:46.883Z,9.22
2023-04-20T21:31:52.056Z,9.30
2023-04-20T21:36:54.817Z,9.44
2023-04-20T21:41:57.769Z,9.36
2023-04-20T21:47:02.714Z,9.25
2023-04-20T21:52:05.353Z,9.15
2023-04-20T21:57:08.056Z,9.03
2023-04-20T22:02:10.797Z,8.88
2023-04-20T22:07:14.770Z,8.41
2023-04-20T22:12:21.508Z,8.29
2023-04-20T22:17:31.500Z,8.26
2023-04-20T22:22:34.872Z,7.73
2023-04-20T22:27:37.905Z,7.49
2023-04-20T22:32:41.158Z,7.28
2023-04-20T22:37:43.986Z,7.24
2023-04-20T22:42:46.565Z,7.28
2023-04-20T22:47:49.206Z,7.05
2023-04-20T22:52:52.158Z,6.97
2023-04-20T22:57:54.713Z,6.92
2023-04-20T23:02:57.343Z,6.91
2023-04-20T23:08:00.719Z,6.86
2023-04-20T23:13:05.118Z,6.94
2023-04-20T23:18:07.711Z,7.21
2023-04-20T23:23:11.045Z,7.49
2023-04-20T23:28:14.238Z,7.27
2023-04-20T23:33:17.003Z,7.13
2023-04-20T23:38:19.566Z,7.02
2023-04-20T23:43:22.251Z,7.43
2023-04-20T23:48:24.762Z,7.52
2023-04-20T23:53:27.626Z,7.23
2023-04-20T23:58:30.162Z,7.18
